Terminal Aerodrome Forecast
Issued by NWS Wichita, KS

Home | Current Version | Previous Version | Graphics & Text | Print | Product List | Glossary On
Versions: 1 2 3 4 5 6 7 8 9 10 11 12 13 14 15 16 17 18
207
FTUS43 KICT 191720
TAFICT
TAF
KICT 191720Z 1918/2018 17006KT P6SM SCT250
     FM201400 19008KT P6SM FEW250
     FM201600 19014G22KT P6SM SCT050 BKN250=

USA.gov is the U.S. government's official web portal to all federal, state and local government web resources and services.